Time;durP1;ratioP1;P1;durP2;ratioP2;P2;SDS_P1;SDS_P2;PMS_P1;PMS_P2;Temp;Humidity;BMP_temperature;BMP_pressure;BME280_temperature;BME280_humidity;BME280_pressure;Samples;Min_cycle;Max_cycle;Signal;HPM_P1;HPM_P2
2022/04/15 05:29:30;;;;;;;6.42;3.27;;;;;;;;;;1756156;80;22348;-70
2022/04/15 05:31:58;;;;;;;5.17;3.10;;;;;;;;;;1714518;83;21064;-69
2022/04/15 05:34:24;;;;;;;4.47;2.45;;;;;;;;;;1760822;81;20996;-70
2022/04/15 05:36:50;;;;;;;4.85;2.77;;;;;;;;;;1749004;81;21016;-70
2022/04/15 05:39:16;;;;;;;5.03;2.80;;;;;;;;;;1757025;81;21499;-68
2022/04/15 05:41:42;;;;;;;4.62;2.67;;;;;;;;;;1754082;81;21009;-69
2022/04/15 05:44:12;;;;;;;4.00;3.22;;;;;;;;;;1758792;81;22065;-69
2022/04/15 05:46:38;;;;;;;5.62;3.17;;;;;;;;;;1761699;81;21539;-70
2022/04/15 05:49:06;;;;;;;5.75;3.08;;;;;;;;;;1758063;81;21020;-70
2022/04/15 05:51:32;;;;;;;5.33;3.50;;;;;;;;;;1703352;84;21587;-70
2022/04/15 05:53:58;;;;;;;7.03;3.25;;;;;;;;;;1740856;81;21000;-70
2022/04/15 05:56:25;;;;;;;5.33;3.12;;;;;;;;;;1761421;81;21028;-70
2022/04/15 05:58:52;;;;;;;6.72;3.55;;;;;;;;;;1729707;82;21056;-70
2022/04/15 06:01:18;;;;;;;6.53;3.83;;;;;;;;;;1726180;83;21013;-70
2022/04/15 06:03:45;;;;;;;6.28;3.95;;;;;;;;;;1752364;82;21111;-71
2022/04/15 06:06:12;;;;;;;4.75;3.60;;;;;;;;;;1740082;82;21079;-71
2022/04/15 06:08:38;;;;;;;6.25;4.05;;;;;;;;;;1754215;82;21004;-71
2022/04/15 06:11:04;;;;;;;7.22;4.75;;;;;;;;;;1748019;82;21022;-72
2022/04/15 06:13:31;;;;;;;6.35;3.77;;;;;;;;;;1745398;82;21108;-70
2022/04/15 06:15:59;;;;;;;6.95;4.37;;;;;;;;;;1745065;82;21057;-68
2022/04/15 06:18:26;;;;;;;5.37;3.95;;;;;;;;;;1743700;82;21040;-70
2022/04/15 06:20:55;;;;;;;9.53;5.17;;;;;;;;;;1721740;83;21131;-70
2022/04/15 06:23:22;;;;;;;8.38;5.00;;;;;;;;;;1717902;83;22117;-70
2022/04/15 06:25:47;;;;;;;7.08;4.87;;;;;;;;;;1712295;83;21017;-70
2022/04/15 06:28:14;;;;;;;9.43;5.42;;;;;;;;;;1714060;82;21080;-70
2022/04/15 06:30:41;;;;;;;7.65;4.50;;;;;;;;;;1714440;84;21049;-70
2022/04/15 06:33:08;;;;;;;9.48;5.92;;;;;;;;;;1714262;84;21078;-71
2022/04/15 06:35:36;;;;;;;9.05;5.47;;;;;;;;;;1728621;83;21091;-70
2022/04/15 06:38:02;;;;;;;7.55;4.20;;;;;;;;;;1728874;83;21060;-70
2022/04/15 06:40:28;;;;;;;6.50;3.80;;;;;;;;;;1701535;83;21508;-70
2022/04/15 06:42:55;;;;;;;6.08;3.60;;;;;;;;;;1700873;83;21091;-70
2022/04/15 06:45:21;;;;;;;5.33;3.47;;;;;;;;;;1699720;83;21048;-70
2022/04/15 06:47:47;;;;;;;6.50;3.80;;;;;;;;;;1728861;82;21071;-70
2022/04/15 06:50:13;;;;;;;4.60;3.27;;;;;;;;;;1727463;83;21384;-70
2022/04/15 06:52:39;;;;;;;4.03;2.67;;;;;;;;;;1728866;83;21410;-70
2022/04/15 06:55:06;;;;;;;5.20;3.27;;;;;;;;;;1699603;83;21120;-70
2022/04/15 06:57:32;;;;;;;6.75;3.17;;;;;;;;;;1705340;84;21493;-70
2022/04/15 06:59:58;;;;;;;4.87;3.17;;;;;;;;;;1693285;83;21077;-70
2022/04/15 07:02:25;;;;;;;4.30;2.85;;;;;;;;;;1705159;82;20996;-70
2022/04/15 07:04:52;;;;;;;5.10;3.45;;;;;;;;;;1722820;83;21090;-70
2022/04/15 07:07:18;;;;;;;4.55;2.90;;;;;;;;;;1729133;81;21040;-70
2022/04/15 07:09:45;;;;;;;4.25;2.30;;;;;;;;;;1729007;83;22237;-70
2022/04/15 07:12:11;;;;;;;5.12;2.83;;;;;;;;;;1727037;83;21014;-70
2022/04/15 07:14:37;;;;;;;4.25;2.98;;;;;;;;;;1724271;83;21059;-70
2022/04/15 07:17:03;;;;;;;3.83;2.40;;;;;;;;;;1728857;83;21537;-70
2022/04/15 07:19:30;;;;;;;4.50;2.98;;;;;;;;;;1691331;84;21084;-70
2022/04/15 07:21:57;;;;;;;3.85;2.83;;;;;;;;;;1708685;84;20970;-70
2022/04/15 07:24:23;;;;;;;4.85;3.02;;;;;;;;;;1678412;84;21122;-70
2022/04/15 07:26:49;;;;;;;4.37;2.60;;;;;;;;;;1714538;84;21085;-70
2022/04/15 07:29:16;;;;;;;3.77;2.55;;;;;;;;;;1731663;83;21101;-70
2022/04/15 07:31:42;;;;;;;5.03;2.98;;;;;;;;;;1702044;84;21032;-70
2022/04/15 07:34:08;;;;;;;5.00;2.75;;;;;;;;;;1725587;83;21026;-70
2022/04/15 07:39:03;;;;;;;4.17;2.58;;;;;;;;;;1727636;81;21083;-70
2022/04/15 07:41:30;;;;;;;4.90;3.15;;;;;;;;;;1733678;83;21036;-70
2022/04/15 07:43:56;;;;;;;3.92;2.90;;;;;;;;;;1729148;81;21032;-70
2022/04/15 07:46:22;;;;;;;4.33;2.72;;;;;;;;;;1733601;83;21512;-70
2022/04/15 07:48:48;;;;;;;5.55;2.90;;;;;;;;;;1725632;83;21022;-70
2022/04/15 07:51:15;;;;;;;4.75;3.12;;;;;;;;;;1733697;83;21183;-70
2022/04/15 07:53:42;;;;;;;6.40;2.75;;;;;;;;;;1719674;81;21000;-70
2022/04/15 07:56:08;;;;;;;5.22;3.65;;;;;;;;;;1731940;83;21079;-70
2022/04/15 07:58:35;;;;;;;3.87;2.80;;;;;;;;;;1707989;82;21648;-70
2022/04/15 08:01:01;;;;;;;4.70;3.10;;;;;;;;;;1712515;83;21024;-70
2022/04/15 08:03:28;;;;;;;5.42;2.95;;;;;;;;;;1733602;83;21034;-70
2022/04/15 08:05:54;;;;;;;6.85;3.15;;;;;;;;;;1701741;84;21082;-70
2022/04/15 08:08:20;;;;;;;5.08;3.27;;;;;;;;;;1727253;83;21067;-70
2022/04/15 08:10:53;;;;;;;5.37;3.08;;;;;;;;;;1729098;83;21017;-71
2022/04/15 08:13:21;;;;;;;5.75;3.10;;;;;;;;;;1734082;83;21102;-70
2022/04/15 08:15:50;;;;;;;4.92;3.12;;;;;;;;;;1698646;84;21058;-70
2022/04/15 08:18:16;;;;;;;4.00;3.00;;;;;;;;;;1701171;83;21080;-70
2022/04/15 08:20:42;;;;;;;5.35;3.30;;;;;;;;;;1699055;82;20953;-70
2022/04/15 08:23:09;;;;;;;5.47;2.95;;;;;;;;;;1716314;83;21015;-70
2022/04/15 08:25:36;;;;;;;4.65;2.90;;;;;;;;;;1711932;83;21685;-70
2022/04/15 08:28:04;;;;;;;5.30;3.12;;;;;;;;;;1729138;83;21079;-70
2022/04/15 08:30:33;;;;;;;5.47;3.08;;;;;;;;;;1710490;83;21877;-70
2022/04/15 08:32:58;;;;;;;4.42;2.90;;;;;;;;;;1702713;84;20997;-70
2022/04/15 08:35:25;;;;;;;5.20;3.45;;;;;;;;;;1702493;84;21076;-70
2022/04/15 08:37:51;;;;;;;4.85;3.27;;;;;;;;;;1702775;84;21533;-70
2022/04/15 08:40:17;;;;;;;7.10;2.90;;;;;;;;;;1702314;84;21041;-70
2022/04/15 08:42:43;;;;;;;5.37;2.80;;;;;;;;;;1714735;83;21119;-70
2022/04/15 08:45:16;;;;;;;5.58;3.00;;;;;;;;;;1710674;84;21029;-71
2022/04/15 08:47:40;;;;;;;5.05;3.15;;;;;;;;;;1725967;81;21051;-70
2022/04/15 08:50:06;;;;;;;4.15;3.00;;;;;;;;;;1720002;83;21038;-70
2022/04/15 08:52:32;;;;;;;4.65;2.85;;;;;;;;;;1703593;83;21549;-69
2022/04/15 08:54:59;;;;;;;7.30;3.80;;;;;;;;;;1700335;84;21477;-69
2022/04/15 08:57:25;;;;;;;4.60;2.80;;;;;;;;;;1700118;84;21082;-69
2022/04/15 08:59:53;;;;;;;5.08;3.08;;;;;;;;;;1700389;84;21550;-69
2022/04/15 09:02:31;;;;;;;5.28;2.75;;;;;;;;;;1700299;84;21041;-69
2022/04/15 09:04:57;;;;;;;5.45;2.80;;;;;;;;;;1694621;84;21587;-70
2022/04/15 09:07:25;;;;;;;5.37;3.12;;;;;;;;;;1700348;84;21022;-70
2022/04/15 09:09:54;;;;;;;4.60;2.42;;;;;;;;;;1700191;84;21046;-70
2022/04/15 09:12:21;;;;;;;4.22;2.90;;;;;;;;;;1700454;84;21047;-70
2022/04/15 09:14:49;;;;;;;4.70;3.08;;;;;;;;;;1700526;84;21070;-70
2022/04/15 09:17:15;;;;;;;4.15;2.80;;;;;;;;;;1700545;84;21224;-70
2022/04/15 09:19:42;;;;;;;4.55;3.10;;;;;;;;;;1700553;84;21094;-70
2022/04/15 09:22:10;;;;;;;3.75;2.87;;;;;;;;;;1680910;84;21026;-69
2022/04/15 09:24:41;;;;;;;5.05;2.90;;;;;;;;;;1700471;84;21526;-70
2022/04/15 09:27:08;;;;;;;6.65;3.45;;;;;;;;;;1708076;84;21560;-69
2022/04/15 09:29:36;;;;;;;4.40;3.02;;;;;;;;;;1694182;84;21099;-70
2022/04/15 09:32:07;;;;;;;5.12;3.60;;;;;;;;;;1688927;85;21048;-70
2022/04/15 09:34:33;;;;;;;6.08;3.00;;;;;;;;;;1688037;85;21838;-71
2022/04/15 09:37:02;;;;;;;5.20;2.85;;;;;;;;;;1688631;85;21096;-70
2022/04/15 09:39:28;;;;;;;3.65;2.58;;;;;;;;;;1672047;85;21544;-70
2022/04/15 09:41:54;;;;;;;5.42;3.47;;;;;;;;;;1693362;84;20981;-71
2022/04/15 09:44:21;;;;;;;5.05;2.98;;;;;;;;;;1699734;83;20988;-71
2022/04/15 09:46:47;;;;;;;4.85;3.20;;;;;;;;;;1699723;84;21543;-71
2022/04/15 09:49:15;;;;;;;3.60;2.92;;;;;;;;;;1701089;84;21059;-71
2022/04/15 09:51:51;;;;;;;5.47;3.20;;;;;;;;;;1699681;83;21582;-71
2022/04/15 09:54:25;;;;;;;5.25;2.90;;;;;;;;;;1700045;83;21114;-69
2022/04/15 09:56:52;;;;;;;5.05;3.22;;;;;;;;;;1698414;84;21063;-70
2022/04/15 09:59:23;;;;;;;5.37;2.80;;;;;;;;;;1699649;84;21056;-69
2022/04/15 10:01:54;;;;;;;5.77;3.10;;;;;;;;;;1699088;83;21059;-70
2022/04/15 10:04:20;;;;;;;6.90;3.37;;;;;;;;;;1700010;84;21057;-70
2022/04/15 10:06:46;;;;;;;6.45;3.33;;;;;;;;;;1699804;84;21000;-70
2022/04/15 10:09:13;;;;;;;4.72;3.15;;;;;;;;;;1699618;84;21088;-70
2022/04/15 10:11:44;;;;;;;9.15;4.00;;;;;;;;;;1698982;84;21552;-70
2022/04/15 10:14:13;;;;;;;6.22;3.20;;;;;;;;;;1699866;84;21480;-70
2022/04/15 10:16:40;;;;;;;9.93;3.55;;;;;;;;;;1699730;84;21009;-70
2022/04/15 10:19:08;;;;;;;4.90;3.17;;;;;;;;;;1698580;84;21468;-70
2022/04/15 10:21:35;;;;;;;4.95;2.95;;;;;;;;;;1699873;83;21016;-70
2022/04/15 10:24:03;;;;;;;5.05;3.20;;;;;;;;;;1699343;83;21084;-70
2022/04/15 10:26:33;;;;;;;6.03;3.75;;;;;;;;;;1699865;84;21324;-70
2022/04/15 10:28:59;;;;;;;7.17;4.25;;;;;;;;;;1699735;84;21336;-70
2022/04/15 10:31:26;;;;;;;6.10;4.30;;;;;;;;;;1701058;84;21022;-70
2022/04/15 10:33:55;;;;;;;6.70;4.12;;;;;;;;;;1701014;83;21048;-70
2022/04/15 10:36:22;;;;;;;5.22;3.47;;;;;;;;;;1701084;84;21047;-70
2022/04/15 10:39:11;;;;;;;6.72;3.72;;;;;;;;;;1699995;84;21055;-70
2022/04/15 10:41:42;;;;;;;5.80;3.50;;;;;;;;;;1698077;84;21033;-70
2022/04/15 10:44:12;;;;;;;5.97;3.40;;;;;;;;;;1699803;84;21119;-70
2022/04/15 10:46:40;;;;;;;6.17;3.17;;;;;;;;;;1699959;84;21028;-71
2022/04/15 10:49:11;;;;;;;6.10;3.58;;;;;;;;;;1698675;84;21703;-70
2022/04/15 10:51:38;;;;;;;5.60;3.50;;;;;;;;;;1695255;84;21749;-70
2022/04/15 10:54:23;;;;;;;4.95;3.17;;;;;;;;;;1699879;84;21023;-70
2022/04/15 10:57:01;;;;;;;5.08;3.35;;;;;;;;;;1698671;84;21008;-70
2022/04/15 11:02:18;;;;;;;5.78;3.90;;;;;;;;;;1686868;84;21084;-70
2022/04/15 11:04:51;;;;;;;6.85;3.85;;;;;;;;;;1699879;84;20983;-70
2022/04/15 11:07:27;;;;;;;5.97;2.90;;;;;;;;;;1697702;84;21044;-70
2022/04/15 11:09:54;;;;;;;6.80;3.33;;;;;;;;;;1694621;84;21059;-70
2022/04/15 11:12:37;;;;;;;4.95;3.37;;;;;;;;;;1699999;84;21101;-70
2022/04/15 11:15:05;;;;;;;6.13;3.20;;;;;;;;;;1682125;84;21032;-70
2022/04/15 11:17:38;;;;;;;6.70;3.30;;;;;;;;;;1692843;84;22271;-70
2022/04/15 11:20:06;;;;;;;4.62;3.02;;;;;;;;;;1700218;84;20977;-70
2022/04/15 11:22:35;;;;;;;6.33;3.85;;;;;;;;;;1699514;84;21602;-70
2022/04/15 11:25:01;;;;;;;4.47;3.40;;;;;;;;;;1695987;83;21086;-70
2022/04/15 11:27:27;;;;;;;7.78;3.87;;;;;;;;;;1699879;84;21059;-70
2022/04/15 11:29:54;;;;;;;6.17;3.92;;;;;;;;;;1702955;83;21051;-70
2022/04/15 11:32:20;;;;;;;5.67;3.42;;;;;;;;;;1707613;83;21034;-70
2022/04/15 11:34:46;;;;;;;7.05;3.47;;;;;;;;;;1708543;84;21496;-70
2022/04/15 11:37:12;;;;;;;8.70;3.62;;;;;;;;;;1708557;84;21012;-70
2022/04/15 11:39:40;;;;;;;4.30;2.87;;;;;;;;;;1707671;84;20999;-70
2022/04/15 11:42:07;;;;;;;7.12;3.58;;;;;;;;;;1708131;83;21017;-70
2022/04/15 11:44:33;;;;;;;4.60;3.12;;;;;;;;;;1715587;83;21087;-70
2022/04/15 11:49:48;;;;;;;10.65;3.83;;;;;;;;;;1707383;84;21525;-70
2022/04/15 11:52:25;;;;;;;4.67;3.30;;;;;;;;;;1708481;84;21013;-70
2022/04/15 11:54:53;;;;;;;4.53;3.08;;;;;;;;;;1708177;83;21129;-70
2022/04/15 11:57:19;;;;;;;6.17;3.55;;;;;;;;;;1708388;83;21579;-70
2022/04/15 11:59:48;;;;;;;4.58;3.02;;;;;;;;;;1705725;83;21032;-70
2022/04/15 12:02:14;;;;;;;6.58;3.65;;;;;;;;;;1694818;84;21016;-70
2022/04/15 12:04:48;;;;;;;7.97;3.50;;;;;;;;;;1708435;83;21070;-70
2022/04/15 12:07:15;;;;;;;6.80;3.45;;;;;;;;;;1708382;83;21044;-70
2022/04/15 12:09:44;;;;;;;8.60;3.22;;;;;;;;;;1708262;83;21516;-70
2022/04/15 12:12:10;;;;;;;6.17;3.45;;;;;;;;;;1708366;83;21089;-70
2022/04/15 12:14:37;;;;;;;7.28;3.60;;;;;;;;;;1708222;84;21001;-70
2022/04/15 12:17:03;;;;;;;5.03;3.20;;;;;;;;;;1708088;83;21252;-70
2022/04/15 12:19:30;;;;;;;5.33;3.17;;;;;;;;;;1708111;83;21559;-70
2022/04/15 12:21:58;;;;;;;5.08;2.98;;;;;;;;;;1708235;84;21045;-70
2022/04/15 12:24:25;;;;;;;5.05;3.10;;;;;;;;;;1708019;83;21032;-70
2022/04/15 12:26:51;;;;;;;9.50;3.00;;;;;;;;;;1708253;84;21010;-70
2022/04/15 12:32:22;;;;;;;5.00;3.20;;;;;;;;;;1707639;83;21088;-70
2022/04/15 12:34:57;;;;;;;4.20;3.12;;;;;;;;;;1708000;83;21100;-70
2022/04/15 12:37:36;;;;;;;4.45;3.12;;;;;;;;;;1708273;84;21606;-70
2022/04/15 12:40:04;;;;;;;5.95;2.98;;;;;;;;;;1708062;84;21532;-70
2022/04/15 12:42:32;;;;;;;5.75;2.65;;;;;;;;;;1708186;83;21083;-70
2022/04/15 12:45:00;;;;;;;6.25;3.20;;;;;;;;;;1708070;83;21047;-70
2022/04/15 12:47:29;;;;;;;4.65;2.90;;;;;;;;;;1708499;83;21583;-70
2022/04/15 12:49:57;;;;;;;6.15;3.20;;;;;;;;;;1708502;84;21041;-70
2022/04/15 12:52:24;;;;;;;5.97;3.45;;;;;;;;;;1709431;83;21034;-70
2022/04/15 12:54:56;;;;;;;5.90;2.90;;;;;;;;;;1715975;83;21080;-69
2022/04/15 12:57:24;;;;;;;8.00;3.15;;;;;;;;;;1708514;83;21021;-70
2022/04/15 12:59:51;;;;;;;6.40;3.17;;;;;;;;;;1707277;83;21030;-70
2022/04/15 13:02:17;;;;;;;8.73;3.30;;;;;;;;;;1708238;84;21019;-70
2022/04/15 13:04:52;;;;;;;4.85;3.12;;;;;;;;;;1708358;84;21009;-70
2022/04/15 13:07:19;;;;;;;6.03;3.05;;;;;;;;;;1708445;84;21452;-70
2022/04/15 13:09:47;;;;;;;6.70;3.50;;;;;;;;;;1701965;83;21027;-70
2022/04/15 13:12:14;;;;;;;5.40;3.37;;;;;;;;;;1706851;84;21096;-70
2022/04/15 13:14:41;;;;;;;4.87;3.40;;;;;;;;;;1694291;84;21055;-70
2022/04/15 13:17:08;;;;;;;6.65;3.35;;;;;;;;;;1683674;84;21061;-70
2022/04/15 13:19:36;;;;;;;6.03;3.15;;;;;;;;;;1688335;84;21110;-70
2022/04/15 13:22:03;;;;;;;5.78;3.15;;;;;;;;;;1700719;83;21072;-70
2022/04/15 13:24:31;;;;;;;5.87;3.42;;;;;;;;;;1730859;81;21642;-70
2022/04/15 13:26:57;;;;;;;5.45;3.20;;;;;;;;;;1703463;84;21043;-70
2022/04/15 13:29:23;;;;;;;16.60;4.30;;;;;;;;;;1709447;84;21042;-71
2022/04/15 13:31:51;;;;;;;23.22;4.05;;;;;;;;;;1700775;84;21050;-71
2022/04/15 13:34:17;;;;;;;14.35;4.03;;;;;;;;;;1701112;84;21008;-70
2022/04/15 13:36:43;;;;;;;6.15;3.40;;;;;;;;;;1701568;84;21062;-71
2022/04/15 13:39:09;;;;;;;5.05;3.20;;;;;;;;;;1701172;84;21036;-71
2022/04/15 13:41:36;;;;;;;6.22;3.33;;;;;;;;;;1700509;84;21514;-71
2022/04/15 13:44:03;;;;;;;12.20;3.67;;;;;;;;;;1705473;84;21082;-71
2022/04/15 13:46:30;;;;;;;5.37;3.30;;;;;;;;;;1705131;84;21044;-71
2022/04/15 13:48:58;;;;;;;6.10;3.10;;;;;;;;;;1705331;84;20999;-70
2022/04/15 13:51:26;;;;;;;5.25;3.33;;;;;;;;;;1705348;84;21032;-71
2022/04/15 13:56:39;;;;;;;5.80;3.02;;;;;;;;;;1705435;84;21122;-71
2022/04/15 13:59:05;;;;;;;7.62;3.08;;;;;;;;;;1705317;84;21515;-70
2022/04/15 14:01:32;;;;;;;4.42;2.98;;;;;;;;;;1705312;84;21035;-71
2022/04/15 14:04:01;;;;;;;6.35;4.10;;;;;;;;;;1705546;84;20996;-69
2022/04/15 14:06:27;;;;;;;8.10;3.92;;;;;;;;;;1705453;84;21312;-71
2022/04/15 14:08:54;;;;;;;7.10;4.17;;;;;;;;;;1702739;84;21027;-70
2022/04/15 14:11:20;;;;;;;8.60;4.40;;;;;;;;;;1703303;84;21067;-70
2022/04/15 14:13:49;;;;;;;9.18;4.30;;;;;;;;;;1678318;84;21598;-70
2022/04/15 14:16:15;;;;;;;8.38;4.08;;;;;;;;;;1702896;84;21054;-70
2022/04/15 14:18:42;;;;;;;6.85;3.83;;;;;;;;;;1702815;84;21087;-70
2022/04/15 14:21:12;;;;;;;11.88;3.65;;;;;;;;;;1702840;84;21079;-71
2022/04/15 14:23:39;;;;;;;8.15;3.98;;;;;;;;;;1705409;84;21052;-70
2022/04/15 14:26:05;;;;;;;5.10;3.42;;;;;;;;;;1705743;83;21108;-71
2022/04/15 14:28:32;;;;;;;6.65;3.22;;;;;;;;;;1731022;83;21037;-70
2022/04/15 14:30:59;;;;;;;6.08;2.80;;;;;;;;;;1721360;83;21468;-71
2022/04/15 14:33:25;;;;;;;5.80;3.45;;;;;;;;;;1701243;83;21052;-70
2022/04/15 14:35:51;;;;;;;6.90;3.70;;;;;;;;;;1699850;84;21015;-70
2022/04/15 14:38:17;;;;;;;6.70;2.95;;;;;;;;;;1701098;84;21537;-71
2022/04/15 14:40:43;;;;;;;5.80;3.30;;;;;;;;;;1700933;84;21075;-70
2022/04/15 14:43:09;;;;;;;6.62;3.27;;;;;;;;;;1701150;84;21036;-70
2022/04/15 14:45:36;;;;;;;5.55;3.55;;;;;;;;;;1700802;84;21100;-70
2022/04/15 14:48:01;;;;;;;4.50;3.20;;;;;;;;;;1688864;84;21079;-70
2022/04/15 14:50:29;;;;;;;6.33;3.50;;;;;;;;;;1700788;84;21653;-71
2022/04/15 14:52:56;;;;;;;7.58;3.87;;;;;;;;;;1699977;84;21088;-70
2022/04/15 14:55:22;;;;;;;5.47;3.20;;;;;;;;;;1701060;84;21017;-71
2022/04/15 14:57:48;;;;;;;5.90;3.20;;;;;;;;;;1701051;84;21532;-71
2022/04/15 15:00:15;;;;;;;5.03;3.00;;;;;;;;;;1700871;84;21581;-71
2022/04/15 15:02:44;;;;;;;5.67;3.12;;;;;;;;;;1700912;84;21558;-71
2022/04/15 15:05:10;;;;;;;4.92;3.37;;;;;;;;;;1701026;84;21167;-71
2022/04/15 15:07:37;;;;;;;7.80;3.20;;;;;;;;;;1700667;84;21095;-71
2022/04/15 15:10:06;;;;;;;5.80;3.22;;;;;;;;;;1699928;84;21683;-71
2022/04/15 15:12:32;;;;;;;6.42;3.47;;;;;;;;;;1700990;84;21016;-71
2022/04/15 15:14:59;;;;;;;5.50;2.90;;;;;;;;;;1700597;84;21016;-70
2022/04/15 15:17:25;;;;;;;5.47;3.30;;;;;;;;;;1700622;83;21079;-71
2022/04/15 15:19:51;;;;;;;5.85;3.12;;;;;;;;;;1700836;84;21101;-71
2022/04/15 15:22:18;;;;;;;7.72;3.25;;;;;;;;;;1700978;84;21524;-71
2022/04/15 15:30:14;;;;;;;7.37;3.65;;;;;;;;;;1700416;84;20993;-70
2022/04/15 15:32:40;;;;;;;5.58;3.05;;;;;;;;;;1698956;84;20973;-70
2022/04/15 15:35:11;;;;;;;7.47;3.55;;;;;;;;;;1709039;84;21059;-70
2022/04/15 15:37:39;;;;;;;5.27;2.90;;;;;;;;;;1700264;84;21592;-70
2022/04/15 15:40:06;;;;;;;5.62;3.30;;;;;;;;;;1686289;84;21097;-68
2022/04/15 15:42:33;;;;;;;6.83;3.10;;;;;;;;;;1700418;84;21532;-70
2022/04/15 15:44:58;;;;;;;4.83;3.30;;;;;;;;;;1700471;84;21762;-70
2022/04/15 15:47:24;;;;;;;5.95;3.37;;;;;;;;;;1714411;83;20996;-70
2022/04/15 15:49:50;;;;;;;5.58;3.02;;;;;;;;;;1707372;84;20993;-70
2022/04/15 15:52:17;;;;;;;4.72;3.22;;;;;;;;;;1711506;82;21069;-70
2022/04/15 15:54:43;;;;;;;4.22;2.95;;;;;;;;;;1688307;84;21068;-70
2022/04/15 15:57:09;;;;;;;5.75;3.40;;;;;;;;;;1680432;84;21566;-70
2022/04/15 15:59:37;;;;;;;7.33;3.37;;;;;;;;;;1689353;84;21117;-70
2022/04/15 16:02:04;;;;;;;5.58;3.15;;;;;;;;;;1696404;84;21117;-70
2022/04/15 16:04:30;;;;;;;4.55;2.92;;;;;;;;;;1704659;84;21014;-70
2022/04/15 16:06:57;;;;;;;6.22;3.47;;;;;;;;;;1704805;84;21111;-70
2022/04/15 16:09:23;;;;;;;4.53;2.90;;;;;;;;;;1705017;83;21551;-70
2022/04/15 16:11:50;;;;;;;5.83;2.95;;;;;;;;;;1704558;83;21060;-70
2022/04/15 16:14:16;;;;;;;5.65;2.92;;;;;;;;;;1704979;83;21033;-70
2022/04/15 16:16:42;;;;;;;4.70;2.80;;;;;;;;;;1706114;83;21616;-70
2022/04/15 16:19:09;;;;;;;7.33;3.60;;;;;;;;;;1710357;83;21066;-71
2022/04/15 16:21:37;;;;;;;5.67;3.22;;;;;;;;;;1730328;83;21087;-70
2022/04/15 16:24:03;;;;;;;6.85;3.83;;;;;;;;;;1697989;84;21040;-70
2022/04/15 16:26:30;;;;;;;7.87;3.25;;;;;;;;;;1705682;83;21513;-69
2022/04/15 16:28:57;;;;;;;6.35;3.30;;;;;;;;;;1730046;83;21639;-70
2022/04/15 16:31:23;;;;;;;8.05;3.50;;;;;;;;;;1689220;83;21112;-70
2022/04/15 16:33:49;;;;;;;6.42;3.25;;;;;;;;;;1670599;86;21034;-70
2022/04/15 16:36:15;;;;;;;6.87;3.42;;;;;;;;;;1683991;85;21095;-71
2022/04/15 16:38:41;;;;;;;7.97;3.67;;;;;;;;;;1693847;84;21015;-71
2022/04/15 16:41:07;;;;;;;7.72;4.72;;;;;;;;;;1697556;84;21561;-71
2022/04/15 16:43:33;;;;;;;9.98;4.42;;;;;;;;;;1687173;84;21102;-71
2022/04/15 16:45:59;;;;;;;7.12;3.62;;;;;;;;;;1684485;85;21046;-71
2022/04/15 16:48:27;;;;;;;7.12;3.47;;;;;;;;;;1679949;85;21119;-71
2022/04/15 17:03:26;;;;;;;7.72;4.90;;;;;;;;;;1796886;80;22622;-70
2022/04/15 17:05:53;;;;;;;6.80;4.50;;;;;;;;;;1766376;81;20983;-70
2022/04/15 17:08:20;;;;;;;7.70;4.15;;;;;;;;;;1760922;81;21020;-70
2022/04/15 17:10:48;;;;;;;7.45;3.85;;;;;;;;;;1765792;81;21130;-70
2022/04/15 17:13:21;;;;;;;8.08;4.25;;;;;;;;;;1763441;81;21081;-70
2022/04/15 17:15:49;;;;;;;9.48;4.30;;;;;;;;;;1768704;81;21508;-70
2022/04/15 17:18:14;;;;;;;10.50;4.47;;;;;;;;;;1760180;81;21575;-71
2022/04/15 17:20:41;;;;;;;5.97;3.92;;;;;;;;;;1758132;81;21083;-71
2022/04/15 17:23:06;;;;;;;8.80;3.67;;;;;;;;;;1761825;81;21525;-70
2022/04/15 17:25:33;;;;;;;5.45;3.67;;;;;;;;;;1764439;81;21085;-68
2022/04/15 17:27:59;;;;;;;8.53;4.28;;;;;;;;;;1760194;81;21073;-71
2022/04/15 17:30:25;;;;;;;7.87;4.30;;;;;;;;;;1765818;81;21062;-71
2022/04/15 17:32:51;;;;;;;9.48;4.30;;;;;;;;;;1762257;81;21050;-70
2022/04/15 17:35:17;;;;;;;6.83;4.22;;;;;;;;;;1761934;81;21073;-71
2022/04/15 17:37:43;;;;;;;7.65;4.12;;;;;;;;;;1764979;81;21054;-71
2022/04/15 17:40:10;;;;;;;7.33;4.22;;;;;;;;;;1765336;81;21037;-71
2022/04/15 17:42:37;;;;;;;6.90;4.40;;;;;;;;;;1765783;81;21587;-70
2022/04/15 17:45:05;;;;;;;4.72;3.65;;;;;;;;;;1766351;81;21030;-71
2022/04/15 17:47:31;;;;;;;9.70;4.40;;;;;;;;;;1767925;81;21105;-71
2022/04/15 17:49:58;;;;;;;8.25;4.58;;;;;;;;;;1767378;81;21066;-70
2022/04/15 17:52:25;;;;;;;9.08;4.60;;;;;;;;;;1769289;80;21056;-70
2022/04/15 17:54:53;;;;;;;9.58;4.00;;;;;;;;;;1760523;80;21059;-70
2022/04/15 17:57:19;;;;;;;7.72;3.85;;;;;;;;;;1759818;80;20999;-70
2022/04/15 17:59:46;;;;;;;9.48;4.12;;;;;;;;;;1750302;80;21547;-69
2022/04/15 18:02:12;;;;;;;6.20;3.80;;;;;;;;;;1752729;80;21042;-70
2022/04/15 18:04:39;;;;;;;16.07;5.15;;;;;;;;;;1761614;80;21039;-71
2022/04/15 18:07:05;;;;;;;8.33;3.80;;;;;;;;;;1768221;80;21036;-70
2022/04/15 18:09:32;;;;;;;8.43;4.30;;;;;;;;;;1747880;81;21053;-72
2022/04/15 18:11:59;;;;;;;6.58;3.80;;;;;;;;;;1758074;81;21034;-69
2022/04/15 18:14:27;;;;;;;7.28;3.45;;;;;;;;;;1762943;81;21029;-69
2022/04/15 18:16:54;;;;;;;8.40;4.10;;;;;;;;;;1790619;80;21063;-69
2022/04/15 18:19:20;;;;;;;7.20;3.83;;;;;;;;;;1794175;80;21075;-70
2022/04/15 18:21:47;;;;;;;6.28;3.75;;;;;;;;;;1794453;80;20996;-70
2022/04/15 18:24:13;;;;;;;9.25;3.87;;;;;;;;;;1794257;80;20981;-70
2022/04/15 18:26:40;;;;;;;6.60;3.70;;;;;;;;;;1794238;80;21055;-70
2022/04/15 18:29:07;;;;;;;7.58;3.72;;;;;;;;;;1738315;80;21035;-70
2022/04/15 18:31:34;;;;;;;6.45;3.75;;;;;;;;;;1734764;81;21546;-70
2022/04/15 18:34:02;;;;;;;5.95;3.75;;;;;;;;;;1762728;81;21564;-70
2022/04/15 18:36:28;;;;;;;8.08;4.15;;;;;;;;;;1763005;81;21064;-70
2022/04/15 18:38:54;;;;;;;7.65;4.30;;;;;;;;;;1762764;81;21045;-69
2022/04/15 18:41:22;;;;;;;6.37;3.30;;;;;;;;;;1758028;80;21006;-70
2022/04/15 18:43:52;;;;;;;6.50;3.62;;;;;;;;;;1775443;80;21047;-69
2022/04/15 18:46:16;;;;;;;6.00;3.72;;;;;;;;;;1758920;80;21050;-69
2022/04/15 18:54:14;;;;;;;6.95;4.37;;;;;;;;;;1731721;83;21633;-69
2022/04/15 18:56:40;;;;;;;9.15;5.25;;;;;;;;;;1776071;80;21531;-69
2022/04/15 18:59:11;;;;;;;9.33;5.95;;;;;;;;;;1791391;80;21104;-69
2022/04/15 19:01:37;;;;;;;9.33;5.47;;;;;;;;;;1791709;80;21511;-70
2022/04/15 19:04:03;;;;;;;11.28;6.40;;;;;;;;;;1789481;80;21539;-70
2022/04/15 19:06:30;;;;;;;8.68;5.37;;;;;;;;;;1756987;80;21492;-70
2022/04/15 19:08:57;;;;;;;11.53;4.62;;;;;;;;;;1756552;81;21004;-70
2022/04/15 19:11:24;;;;;;;5.92;3.92;;;;;;;;;;1756803;81;21053;-70
2022/04/15 19:13:55;;;;;;;6.72;4.12;;;;;;;;;;1756231;81;21029;-70
2022/04/15 19:16:21;;;;;;;8.53;4.70;;;;;;;;;;1779563;80;21052;-70
2022/04/15 19:18:47;;;;;;;10.88;5.92;;;;;;;;;;1756276;81;21616;-70
2022/04/15 19:21:14;;;;;;;9.23;4.30;;;;;;;;;;1725031;81;21016;-70
2022/04/15 19:23:41;;;;;;;7.83;4.03;;;;;;;;;;1726463;80;21074;-70
2022/04/15 19:26:08;;;;;;;7.70;4.55;;;;;;;;;;1794650;80;21067;-70
2022/04/15 19:28:36;;;;;;;8.10;4.30;;;;;;;;;;1794457;80;21507;-70
2022/04/15 19:31:03;;;;;;;10.88;5.00;;;;;;;;;;1794676;80;21024;-70
2022/04/15 19:33:29;;;;;;;8.13;4.58;;;;;;;;;;1794775;80;21016;-70
2022/04/15 19:35:55;;;;;;;8.20;5.12;;;;;;;;;;1783686;80;21015;-70
2022/04/15 19:38:22;;;;;;;8.75;5.15;;;;;;;;;;1729819;83;21531;-70
2022/04/15 19:40:49;;;;;;;7.80;5.08;;;;;;;;;;1729623;83;21690;-69
2022/04/15 19:43:17;;;;;;;7.37;4.87;;;;;;;;;;1731201;83;21035;-69
2022/04/15 19:45:44;;;;;;;9.73;4.83;;;;;;;;;;1729795;83;21495;-69
2022/04/15 19:48:11;;;;;;;7.85;4.55;;;;;;;;;;1729660;83;21090;-69
2022/04/15 19:50:42;;;;;;;9.63;5.58;;;;;;;;;;1729848;83;21620;-69
2022/04/15 19:53:08;;;;;;;10.80;5.03;;;;;;;;;;1729829;83;21067;-71
2022/04/15 19:55:34;;;;;;;11.08;6.85;;;;;;;;;;1729781;83;21067;-70
2022/04/15 20:01:04;;;;;;;12.43;6.65;;;;;;;;;;1729585;83;21070;-71
2022/04/15 20:03:31;;;;;;;13.18;7.10;;;;;;;;;;1728538;82;21095;-70
2022/04/15 20:05:58;;;;;;;12.95;7.37;;;;;;;;;;1725118;83;21042;-70
2022/04/15 20:08:25;;;;;;;14.15;8.53;;;;;;;;;;1725124;83;21550;-70
2022/04/15 20:10:52;;;;;;;13.88;9.08;;;;;;;;;;1724830;83;21102;-69
2022/04/15 20:13:20;;;;;;;11.88;7.22;;;;;;;;;;1760671;80;21511;-70
2022/04/15 20:15:47;;;;;;;13.62;7.30;;;;;;;;;;1791849;80;21025;-70
2022/04/15 20:18:16;;;;;;;13.88;7.83;;;;;;;;;;1791878;80;20985;-70
2022/04/15 20:20:46;;;;;;;11.18;7.37;;;;;;;;;;1791999;80;21086;-69
2022/04/15 20:23:14;;;;;;;13.15;7.60;;;;;;;;;;1792095;80;21071;-70
2022/04/15 20:25:40;;;;;;;11.97;7.90;;;;;;;;;;1792064;80;21038;-69
2022/04/15 20:28:08;;;;;;;12.10;8.13;;;;;;;;;;1791879;80;21048;-70
2022/04/15 20:30:34;;;;;;;12.05;7.90;;;;;;;;;;1792080;80;21047;-69
2022/04/15 20:33:00;;;;;;;12.85;8.40;;;;;;;;;;1792131;80;21040;-70
2022/04/15 20:35:27;;;;;;;10.82;7.50;;;;;;;;;;1791692;80;21032;-70
2022/04/15 20:37:55;;;;;;;13.72;8.73;;;;;;;;;;1791989;80;21076;-70
2022/04/15 20:40:21;;;;;;;14.68;8.53;;;;;;;;;;1792065;80;21020;-70
2022/04/15 20:42:51;;;;;;;15.00;7.85;;;;;;;;;;1791977;80;21083;-69
2022/04/15 20:45:18;;;;;;;11.50;8.30;;;;;;;;;;1792030;80;21013;-69
2022/04/15 20:47:45;;;;;;;12.45;8.35;;;;;;;;;;1791915;80;21040;-69
2022/04/15 20:50:11;;;;;;;13.08;8.38;;;;;;;;;;1792044;80;21566;-69